Time;durP1;ratioP1;P1;durP2;ratioP2;P2;SDS_P1;SDS_P2;PMS_P1;PMS_P2;Temp;Humidity;BMP_temperature;BMP_pressure;BME280_temperature;BME280_humidity;BME280_pressure;Samples;Min_cycle;Max_cycle;Signal;HPM_P1;HPM_P2
2023/12/04 00:00:17;;;;;;;;;;;;;;;-0.78;100.00;101252.72;5062815;28;1906;-71
2023/12/04 00:02:42;;;;;;;;;;;;;;;-0.78;100.00;101241.69;5064927;28;1254;-73
2023/12/04 00:05:07;;;;;;;;;;;;;;;-0.78;100.00;101236.59;5067232;28;1150;-70
2023/12/04 00:07:33;;;;;;;;;;;;;;;-0.78;100.00;101242.53;5064512;28;1159;-71
2023/12/04 00:09:58;;;;;;;;;;;;;;;-0.75;100.00;101226.31;5066786;28;1197;-71
2023/12/04 00:12:23;;;;;;;;;;;;;;;-0.76;100.00;101230.56;5064699;28;1352;-71
2023/12/04 00:14:48;;;;;;;;;;;;;;;-0.77;100.00;101234.00;5059130;28;1051;-70
2023/12/04 00:17:13;;;;;;;;;;;;;;;-0.76;100.00;101233.13;5065937;28;1176;-71
2023/12/04 00:19:38;;;;;;;;;;;;;;;-0.74;100.00;101239.03;5066831;28;1957;-70
2023/12/04 00:22:04;;;;;;;;;;;;;;;-0.75;100.00;101237.31;5066295;28;1197;-71
2023/12/04 00:24:29;;;;;;;;;;;;;;;-0.74;100.00;101233.94;5060712;28;1254;-72
2023/12/04 00:26:54;;;;;;;;;;;;;;;-0.72;100.00;101232.16;5060978;28;1129;-70
2023/12/04 00:29:19;;;;;;;;;;;;;;;-0.71;100.00;101244.00;5064220;28;1346;-72
2023/12/04 00:31:44;;;;;;;;;;;;;;;-0.71;100.00;101233.81;5060804;28;1175;-72
2023/12/04 00:34:12;;;;;;;;;;;;;;;-0.76;100.00;101225.47;5065464;28;1051;-70
2023/12/04 00:36:37;;;;;;;;;;;;;;;-0.71;100.00;101233.00;5061648;28;1215;-71
2023/12/04 00:39:03;;;;;;;;;;;;;;;-0.71;100.00;101228.72;5060076;28;1893;-71
2023/12/04 00:41:29;;;;;;;;;;;;;;;-0.71;100.00;101228.72;5062100;28;880;-71
2023/12/04 00:43:54;;;;;;;;;;;;;;;-0.71;100.00;101217.72;5059480;28;964;-73
2023/12/04 00:46:19;;;;;;;;;;;;;;;-0.71;100.00;101231.28;5061844;28;1001;-71
2023/12/04 00:48:46;;;;;;;;;;;;;;;-0.71;100.00;101217.72;5058025;28;1078;-73
2023/12/04 00:51:11;;;;;;;;;;;;;;;-0.74;100.00;101211.00;5060826;28;1049;-71
2023/12/04 00:53:36;;;;;;;;;;;;;;;-0.74;100.00;101218.66;5058480;28;1001;-73
2023/12/04 00:56:01;;;;;;;;;;;;;;;-0.72;100.00;101216.88;5047336;28;1326;-71
2023/12/04 00:58:26;;;;;;;;;;;;;;;-0.72;100.00;101209.25;5046010;28;1980;-72
2023/12/04 01:00:52;;;;;;;;;;;;;;;-0.72;100.00;101206.69;5042944;28;1267;-71
2023/12/04 01:03:17;;;;;;;;;;;;;;;-0.71;100.00;101205.81;5043502;28;1004;-72
2023/12/04 01:05:42;;;;;;;;;;;;;;;-0.70;100.00;101204.94;5044598;28;1064;-72
2023/12/04 01:08:07;;;;;;;;;;;;;;;-0.69;100.00;101190.47;5039647;28;1084;-71
2023/12/04 01:10:33;;;;;;;;;;;;;;;-0.70;100.00;101189.63;5051816;28;1013;-71
2023/12/04 01:12:58;;;;;;;;;;;;;;;-0.69;100.00;101181.16;5045232;28;1188;-71
2023/12/04 01:15:23;;;;;;;;;;;;;;;-0.71;100.00;101177.78;5040685;28;1056;-72
2023/12/04 01:17:48;;;;;;;;;;;;;;;-0.71;100.00;101175.25;5045744;28;1293;-71
2023/12/04 01:20:14;;;;;;;;;;;;;;;-0.73;100.00;101183.81;5047432;28;1971;-71
2023/12/04 01:22:39;;;;;;;;;;;;;;;-0.72;100.00;101165.09;5050940;28;941;-71
2023/12/04 01:25:04;;;;;;;;;;;;;;;-0.72;100.00;101165.94;5046919;28;1151;-71
2023/12/04 01:27:29;;;;;;;;;;;;;;;-0.74;100.00;101161.78;5038037;28;1370;-72
2023/12/04 01:29:55;;;;;;;;;;;;;;;-0.75;100.00;101166.00;5045869;28;1097;-71
2023/12/04 01:32:20;;;;;;;;;;;;;;;-0.75;100.00;101160.94;5044209;28;1188;-71
2023/12/04 01:34:45;;;;;;;;;;;;;;;-0.76;100.00;101163.53;5044261;28;1169;-71
2023/12/04 01:37:11;;;;;;;;;;;;;;;-0.77;100.00;101156.78;5039103;28;1081;-74
2023/12/04 01:39:36;;;;;;;;;;;;;;;-0.79;100.00;101159.38;5041819;28;1906;-70
2023/12/04 01:42:02;;;;;;;;;;;;;;;-0.78;100.00;101166.13;5031850;28;1114;-71
2023/12/04 01:44:27;;;;;;;;;;;;;;;-0.78;100.00;101153.38;5042135;28;1138;-71
2023/12/04 01:46:52;;;;;;;;;;;;;;;-0.78;100.00;101155.09;5042705;28;1137;-73
2023/12/04 01:49:18;;;;;;;;;;;;;;;-0.77;100.00;101157.59;5038203;28;1079;-72
2023/12/04 01:51:43;;;;;;;;;;;;;;;-0.78;100.00;101155.94;5033766;28;1562;-71
2023/12/04 01:54:09;;;;;;;;;;;;;;;-0.78;100.00;101155.94;5038504;28;1130;-70
2023/12/04 01:56:36;;;;;;;;;;;;;;;-0.79;100.00;101154.28;5027287;28;1164;-71
2023/12/04 01:59:01;;;;;;;;;;;;;;;-0.77;100.00;101152.50;5045461;28;1951;-74
2023/12/04 02:01:27;;;;;;;;;;;;;;;-0.77;100.00;101146.59;5037795;28;1184;-71
2023/12/04 02:03:53;;;;;;;;;;;;;;;-0.77;100.00;101142.31;5035346;28;1296;-70
2023/12/04 02:06:20;;;;;;;;;;;;;;;-0.77;100.00;101132.13;5045392;28;1145;-70
2023/12/04 02:08:46;;;;;;;;;;;;;;;-0.77;100.00;101132.13;5041853;28;1082;-71
2023/12/04 02:11:11;;;;;;;;;;;;;;;-0.75;100.00;101135.47;5044128;28;1077;-72
2023/12/04 02:13:37;;;;;;;;;;;;;;;-0.73;100.00;101123.53;5037961;28;1026;-71
2023/12/04 02:16:06;;;;;;;;;;;;;;;-0.73;100.00;101128.63;5035542;28;1023;-70
2023/12/04 02:18:31;;;;;;;;;;;;;;;-0.72;100.00;101127.75;5034039;28;1965;-71
2023/12/04 02:20:56;;;;;;;;;;;;;;;-0.71;100.00;101110.75;5041427;28;1351;-70
2023/12/04 02:23:21;;;;;;;;;;;;;;;-0.72;100.00;101112.47;5043921;28;1083;-73
2023/12/04 02:25:46;;;;;;;;;;;;;;;-0.72;100.00;101115.00;5035716;28;1053;-72
2023/12/04 02:28:14;;;;;;;;;;;;;;;-0.71;100.00;101116.66;5004080;28;1071837;-71
2023/12/04 02:30:41;;;;;;;;;;;;;;;-0.70;100.00;101102.22;5045290;28;1118;-71
2023/12/04 02:33:07;;;;;;;;;;;;;;;-0.71;100.00;101096.28;5044250;28;1031;-73
2023/12/04 02:35:33;;;;;;;;;;;;;;;-0.69;100.00;101094.56;5040693;28;1144;-71
2023/12/04 02:38:00;;;;;;;;;;;;;;;-0.69;100.00;101092.00;5041666;28;1050;-74
2023/12/04 02:40:25;;;;;;;;;;;;;;;-0.69;100.00;101094.56;5046751;28;2286;-72
2023/12/04 02:42:50;;;;;;;;;;;;;;;-0.70;100.00;101087.75;5042339;28;1312;-71
2023/12/04 02:45:15;;;;;;;;;;;;;;;-0.69;100.00;101091.16;5040666;28;1175;-72
2023/12/04 02:47:41;;;;;;;;;;;;;;;-0.68;100.00;101078.38;5037733;28;1385;-71
2023/12/04 02:50:06;;;;;;;;;;;;;;;-0.68;100.00;101075.00;5037952;28;1054;-74
2023/12/04 02:52:31;;;;;;;;;;;;;;;-0.69;100.00;101079.28;5034984;28;1138;-73
2023/12/04 02:54:56;;;;;;;;;;;;;;;-0.69;100.00;101074.19;5041422;28;1036;-71
2023/12/04 02:57:22;;;;;;;;;;;;;;;-0.69;100.00;101070.75;5042666;28;1161;-70
2023/12/04 02:59:47;;;;;;;;;;;;;;;-0.68;100.00;101069.91;5037987;28;1961;-73
2023/12/04 03:02:12;;;;;;;;;;;;;;;-0.68;100.00;101067.38;5036284;28;1039;-71
2023/12/04 03:04:37;;;;;;;;;;;;;;;-0.68;100.00;101065.66;5038175;28;999;-70
2023/12/04 03:07:03;;;;;;;;;;;;;;;-0.70;100.00;101052.09;5038641;28;1185;-70
2023/12/04 03:09:28;;;;;;;;;;;;;;;-0.69;100.00;101053.78;5040244;28;1152;-74
2023/12/04 03:11:53;;;;;;;;;;;;;;;-0.70;100.00;101052.09;5038914;28;1074;-70
2023/12/04 03:14:18;;;;;;;;;;;;;;;-0.70;100.00;101041.91;5040208;28;1116;-74
2023/12/04 03:16:44;;;;;;;;;;;;;;;-0.72;100.00;101043.69;5043162;28;1082;-71
2023/12/04 03:19:09;;;;;;;;;;;;;;;-0.71;100.00;101045.34;5034135;28;1882;-72
2023/12/04 03:21:34;;;;;;;;;;;;;;;-0.72;100.00;101033.50;5036577;28;1241;-72
2023/12/04 03:23:59;;;;;;;;;;;;;;;-0.71;100.00;101034.34;5036361;28;1005;-72
2023/12/04 03:26:25;;;;;;;;;;;;;;;-0.72;100.00;101033.50;5044196;28;1068;-72
2023/12/04 03:28:50;;;;;;;;;;;;;;;-0.73;100.00;101026.75;5035410;28;1150;-72
2023/12/04 03:31:15;;;;;;;;;;;;;;;-0.74;100.00;101034.44;5044657;28;1093;-74
2023/12/04 03:33:40;;;;;;;;;;;;;;;-0.74;100.00;101014.91;5036873;28;1064;-70
2023/12/04 03:36:06;;;;;;;;;;;;;;;-0.75;100.00;101020.84;5040016;28;1236;-73
2023/12/04 03:38:31;;;;;;;;;;;;;;;-0.74;100.00;101017.44;5034283;28;1890;-72
2023/12/04 03:40:56;;;;;;;;;;;;;;;-0.76;100.00;101011.56;5032699;28;1054;-73
2023/12/04 03:43:21;;;;;;;;;;;;;;;-0.78;100.00;101008.22;5035714;28;1080;-71
2023/12/04 03:45:46;;;;;;;;;;;;;;;-0.82;100.00;100991.38;5042694;28;1339;-75
2023/12/04 03:48:12;;;;;;;;;;;;;;;-0.77;100.00;101003.97;5040928;28;1086;-73
2023/12/04 03:50:37;;;;;;;;;;;;;;;-0.78;100.00;101000.59;5037504;28;1015;-70
2023/12/04 03:53:02;;;;;;;;;;;;;;;-0.80;100.00;100984.53;5045900;28;1130;-71
2023/12/04 03:55:27;;;;;;;;;;;;;;;-0.81;100.00;100993.03;5038183;28;1283;-71
2023/12/04 03:57:53;;;;;;;;;;;;;;;-0.82;100.00;100981.19;5039766;28;1192;-71
2023/12/04 04:00:19;;;;;;;;;;;;;;;-0.82;100.00;100981.19;5043977;28;1991;-71
2023/12/04 04:02:44;;;;;;;;;;;;;;;-0.83;100.00;100979.53;5038181;28;1079;-71
2023/12/04 04:05:09;;;;;;;;;;;;;;;-0.84;100.00;100972.78;5039035;28;1105;-73
2023/12/04 04:07:35;;;;;;;;;;;;;;;-0.85;100.00;100966.03;5042132;28;1315;-71
2023/12/04 04:10:00;;;;;;;;;;;;;;;-0.86;100.00;100967.75;5044096;28;1137;-70
2023/12/04 04:12:25;;;;;;;;;;;;;;;-0.85;100.00;100976.22;5035043;28;1252;-72
2023/12/04 04:14:50;;;;;;;;;;;;;;;-0.85;100.00;100960.94;5037800;28;1208;-70
2023/12/04 04:17:16;;;;;;;;;;;;;;;-0.86;100.00;100966.88;5036272;28;1188;-71
2023/12/04 04:19:41;;;;;;;;;;;;;;;-0.87;100.00;100958.41;5042675;28;1898;-73
2023/12/04 04:22:06;;;;;;;;;;;;;;;-0.87;100.00;100955.88;5038678;28;1077;-70
2023/12/04 04:24:31;;;;;;;;;;;;;;;-0.88;100.00;100950.84;5033391;28;1120;-71
2023/12/04 04:26:56;;;;;;;;;;;;;;;-0.87;100.00;100952.50;5035884;28;1066;-71
2023/12/04 04:29:22;;;;;;;;;;;;;;;-0.89;100.00;100960.19;5033089;28;1039;-71
2023/12/04 04:31:47;;;;;;;;;;;;;;;-0.92;100.00;100944.16;5035205;28;1209;-72
2023/12/04 04:34:12;;;;;;;;;;;;;;;-0.90;100.00;100950.06;5035862;28;1192;-71
2023/12/04 04:36:37;;;;;;;;;;;;;;;-0.90;100.00;100947.53;5030077;28;1074;-71
2023/12/04 04:39:02;;;;;;;;;;;;;;;-0.89;100.00;100949.19;5034044;28;1898;-73
2023/12/04 04:41:27;;;;;;;;;;;;;;;-0.90;100.00;100944.97;5027562;28;1395;-71
2023/12/04 04:43:53;;;;;;;;;;;;;;;-0.89;100.00;100933.91;5029816;28;1109;-70
2023/12/04 04:46:18;;;;;;;;;;;;;;;-0.89;100.00;100939.00;5038271;28;1324;-72
2023/12/04 04:48:43;;;;;;;;;;;;;;;-0.90;100.00;100938.16;5034552;28;1231;-72
2023/12/04 04:51:09;;;;;;;;;;;;;;;-0.89;100.00;100933.91;5032929;28;1396;-71
2023/12/04 04:53:34;;;;;;;;;;;;;;;-0.91;100.00;100935.69;5040419;28;1282;-70
2023/12/04 04:55:59;;;;;;;;;;;;;;;-0.92;100.00;100923.81;5033692;28;1055;-73
2023/12/04 04:58:24;;;;;;;;;;;;;;;-0.93;100.00;100922.97;5037269;28;1204;-70
2023/12/04 05:00:50;;;;;;;;;;;;;;;-0.94;100.00;100925.59;5033860;28;1902;-71
2023/12/04 05:03:15;;;;;;;;;;;;;;;-0.93;100.00;100924.69;5036642;28;1191;-72
2023/12/04 05:05:40;;;;;;;;;;;;;;;-0.93;100.00;100935.69;5039549;28;1138;-71
2023/12/04 05:08:05;;;;;;;;;;;;;;;-0.92;100.00;100928.91;5039105;28;1460;-71
2023/12/04 05:10:30;;;;;;;;;;;;;;;-0.96;100.00;100932.44;5042758;28;1200;-70
2023/12/04 05:12:55;;;;;;;;;;;;;;;-0.97;100.00;100925.69;5036160;28;1099;-70
2023/12/04 05:15:21;;;;;;;;;;;;;;;-0.97;100.00;100926.53;5046025;28;1235;-70
2023/12/04 05:17:47;;;;;;;;;;;;;;;-0.96;100.00;100927.34;5046363;28;1073;-72
2023/12/04 05:20:12;;;;;;;;;;;;;;;-0.97;100.00;100920.59;5041119;28;1965;-71
2023/12/04 05:22:37;;;;;;;;;;;;;;;-0.98;100.00;100913.81;5037318;28;1049;-71
2023/12/04 05:25:02;;;;;;;;;;;;;;;-0.97;100.00;100912.97;5038196;28;1144;-71
2023/12/04 05:27:28;;;;;;;;;;;;;;;-0.98;100.00;100904.47;5039486;28;1069;-70
2023/12/04 05:29:53;;;;;;;;;;;;;;;-0.96;100.00;100909.53;5041286;28;1005;-71
2023/12/04 05:32:18;;;;;;;;;;;;;;;-0.96;100.00;100902.72;5036347;28;1145;-71
2023/12/04 05:34:43;;;;;;;;;;;;;;;-0.96;100.00;100907.00;5033895;28;1148;-71
2023/12/04 05:37:08;;;;;;;;;;;;;;;-0.96;100.00;100901.91;5034394;28;1291;-71
2023/12/04 05:39:34;;;;;;;;;;;;;;;-0.95;100.00;100893.38;5033489;28;1906;-70
2023/12/04 05:41:59;;;;;;;;;;;;;;;-0.96;100.00;100886.63;5039012;28;935;-70
2023/12/04 05:44:24;;;;;;;;;;;;;;;-0.97;100.00;100890.06;5038185;28;1177;-70
2023/12/04 05:46:49;;;;;;;;;;;;;;;-0.96;100.00;100884.06;5039209;28;1219;-70
2023/12/04 05:49:14;;;;;;;;;;;;;;;-0.97;100.00;100880.69;5037636;28;1159;-70
2023/12/04 05:51:39;;;;;;;;;;;;;;;-0.96;100.00;100876.44;5034393;28;1097;-69
2023/12/04 05:54:05;;;;;;;;;;;;;;;-0.98;100.00;100865.44;5038356;28;1247;-70
2023/12/04 05:56:30;;;;;;;;;;;;;;;-0.98;100.00;100873.09;5033459;28;1341;-72
2023/12/04 05:58:55;;;;;;;;;;;;;;;-0.98;100.00;100862.91;5027585;28;1890;-72
2023/12/04 06:01:21;;;;;;;;;;;;;;;-0.98;100.00;100863.75;5046628;28;1175;-70
2023/12/04 06:03:46;;;;;;;;;;;;;;;-0.98;100.00;100862.91;5031896;28;1335;-70
2023/12/04 06:06:11;;;;;;;;;;;;;;;-0.98;100.00;100873.09;5034828;28;1604;-70
2023/12/04 06:08:36;;;;;;;;;;;;;;;-0.98;100.00;100878.19;5037967;28;1263;-71
2023/12/04 06:11:02;;;;;;;;;;;;;;;-0.98;100.00;100875.63;5042270;28;1196;-71
2023/12/04 06:13:27;;;;;;;;;;;;;;;-0.98;100.00;100878.19;5034826;28;1197;-70
2023/12/04 06:15:52;;;;;;;;;;;;;;;-0.99;100.00;100876.53;5038633;28;1543;-70
2023/12/04 06:18:17;;;;;;;;;;;;;;;-1.00;100.00;100879.97;5039873;28;1156;-70
2023/12/04 06:20:42;;;;;;;;;;;;;;;-1.01;100.00;100878.31;5035163;28;1989;-73
2023/12/04 06:23:08;;;;;;;;;;;;;;;-1.02;100.00;100862.19;5037097;28;1223;-74
2023/12/04 06:25:33;;;;;;;;;;;;;;;-1.02;100.00;100864.75;5038253;28;1102;-71
2023/12/04 06:27:58;;;;;;;;;;;;;;;-1.00;100.00;100854.50;5041507;28;1300;-72
2023/12/04 06:30:24;;;;;;;;;;;;;;;-0.99;100.00;100845.97;5035908;28;1204;-73
2023/12/04 06:32:49;;;;;;;;;;;;;;;-0.98;100.00;100843.38;5037829;28;1051;-73
2023/12/04 06:35:15;;;;;;;;;;;;;;;-0.97;100.00;100839.16;5035984;28;1110;-71
2023/12/04 06:37:40;;;;;;;;;;;;;;;-0.96;100.00;100840.81;5035566;28;1197;-71
2023/12/04 06:40:08;;;;;;;;;;;;;;;-0.97;100.00;100824.69;5039242;28;1971;-72
2023/12/04 06:42:33;;;;;;;;;;;;;;;-0.96;100.00;100821.25;5037952;28;1244;-73
2023/12/04 06:44:58;;;;;;;;;;;;;;;-0.94;100.00;100823.75;5040420;28;1458;-71
2023/12/04 06:47:24;;;;;;;;;;;;;;;-0.95;100.00;100812.75;5034964;28;1398;-71
2023/12/04 06:49:49;;;;;;;;;;;;;;;-0.94;100.00;100813.56;5042587;28;1079;-71
2023/12/04 06:52:14;;;;;;;;;;;;;;;-0.94;100.00;100808.47;5037877;28;1084;-74
2023/12/04 06:54:39;;;;;;;;;;;;;;;-0.93;100.00;100799.94;5040682;28;1246;-72
2023/12/04 06:57:04;;;;;;;;;;;;;;;-0.95;100.00;100786.44;5034102;28;998;-70
2023/12/04 06:59:30;;;;;;;;;;;;;;;-0.96;100.00;100787.34;5038398;28;1882;-72
2023/12/04 07:01:55;;;;;;;;;;;;;;;-0.94;100.00;100788.09;5035661;28;1198;-70
2023/12/04 07:04:21;;;;;;;;;;;;;;;-0.93;100.00;100779.59;5041293;28;1057;-72
2023/12/04 07:06:47;;;;;;;;;;;;;;;-0.93;100.00;100777.03;5034081;28;1091;-71
2023/12/04 07:09:12;;;;;;;;;;;;;;;-0.93;100.00;100777.03;5042271;28;1217;-71
2023/12/04 07:11:37;;;;;;;;;;;;;;;-0.93;100.00;100774.50;5035728;28;1066;-70
2023/12/04 07:14:03;;;;;;;;;;;;;;;-0.93;100.00;100764.31;5042212;28;1273;-71
2023/12/04 07:16:28;;;;;;;;;;;;;;;-0.93;100.00;100764.31;5042165;28;1091;-71
2023/12/04 07:18:54;;;;;;;;;;;;;;;-0.93;100.00;100769.41;5038548;28;1961;-71
2023/12/04 07:21:19;;;;;;;;;;;;;;;-0.92;100.00;100766.81;5040418;28;1351;-70
2023/12/04 07:23:44;;;;;;;;;;;;;;;-0.91;100.00;100767.66;5042029;28;1260;-72
2023/12/04 07:26:09;;;;;;;;;;;;;;;-0.92;100.00;100758.31;5043032;28;1146;-73
2023/12/04 07:28:34;;;;;;;;;;;;;;;-0.90;100.00;100764.22;5043723;28;1142;-72
2023/12/04 07:31:01;;;;;;;;;;;;;;;-0.91;100.00;100777.84;5041172;28;1073;-71
2023/12/04 07:33:26;;;;;;;;;;;;;;;-0.91;100.00;100772.75;5041077;28;1085;-71
2023/12/04 07:35:52;;;;;;;;;;;;;;;-0.90;100.00;100779.50;5038831;28;1035;-71
2023/12/04 07:38:17;;;;;;;;;;;;;;;-0.90;100.00;100776.94;5042063;28;992;-71
2023/12/04 07:40:42;;;;;;;;;;;;;;;-0.89;100.00;100781.16;5044772;28;1906;-70
2023/12/04 07:43:07;;;;;;;;;;;;;;;-0.90;100.00;100779.50;5044857;28;1101;-70
2023/12/04 07:45:34;;;;;;;;;;;;;;;-0.91;100.00;100773.56;5048395;28;1187;-75
2023/12/04 07:47:59;;;;;;;;;;;;;;;-0.90;100.00;100779.50;5047757;28;946;-71
2023/12/04 07:50:25;;;;;;;;;;;;;;;-0.92;100.00;100773.59;5044085;28;1040;-70
2023/12/04 07:52:50;;;;;;;;;;;;;;;-0.91;100.00;100785.47;5047348;28;980;-73
2023/12/04 07:55:15;;;;;;;;;;;;;;;-0.92;100.00;100788.88;5035356;28;1452;-72
2023/12/04 07:57:40;;;;;;;;;;;;;;;-0.90;100.00;100784.59;5043878;28;1204;-72
2023/12/04 08:00:06;;;;;;;;;;;;;;;-0.92;100.00;100776.16;5042198;28;1961;-71
2023/12/04 08:02:31;;;;;;;;;;;;;;;-0.91;100.00;100777.84;5042180;28;1229;-71
2023/12/04 08:04:56;;;;;;;;;;;;;;;-0.91;100.00;100773.56;5039024;28;1017;-70
2023/12/04 08:07:22;;;;;;;;;;;;;;;-0.90;100.00;100779.50;5043132;28;1155;-72
2023/12/04 08:09:47;;;;;;;;;;;;;;;-0.90;100.00;100769.31;5028777;28;1205;-73
2023/12/04 08:12:12;;;;;;;;;;;;;;;-0.90;100.00;100770.13;5031243;28;1371;-71
2023/12/04 08:14:37;;;;;;;;;;;;;;;-0.88;100.00;100772.63;5043204;28;1224;-71
2023/12/04 08:17:03;;;;;;;;;;;;;;;-0.89;100.00;100756.50;5032092;28;1210;-71
2023/12/04 08:19:28;;;;;;;;;;;;;;;-0.86;100.00;100765.75;5037091;28;1918;-70
2023/12/04 08:21:53;;;;;;;;;;;;;;;-0.87;100.00;100759.00;5032633;28;1233;-73
2023/12/04 08:24:18;;;;;;;;;;;;;;;-0.86;100.00;100755.56;5037515;28;1098;-71
2023/12/04 08:26:45;;;;;;;;;;;;;;;-0.85;100.00;100762.34;5035923;28;1283;-74
2023/12/04 08:29:10;;;;;;;;;;;;;;;-0.84;100.00;100748.72;5035301;28;1238;-71
2023/12/04 08:31:35;;;;;;;;;;;;;;;-0.82;100.00;100746.94;5037872;28;1304;-72
2023/12/04 08:34:01;;;;;;;;;;;;;;;-0.82;100.00;100739.31;5032806;28;1128;-75
2023/12/04 08:36:26;;;;;;;;;;;;;;;-0.81;100.00;100741.78;5033440;28;1520;-73
2023/12/04 08:38:51;;;;;;;;;;;;;;;-0.79;100.00;100740.94;5040770;28;1986;-70
2023/12/04 08:41:16;;;;;;;;;;;;;;;-0.79;100.00;100741.75;5039476;28;1185;-71
2023/12/04 08:43:41;;;;;;;;;;;;;;;-0.77;100.00;100741.69;5043577;28;1081;-70
2023/12/04 08:46:07;;;;;;;;;;;;;;;-0.76;100.00;100736.53;5042859;28;958;-73
2023/12/04 08:48:32;;;;;;;;;;;;;;;-0.75;100.00;100738.19;5044212;28;1015;-71
2023/12/04 08:50:58;;;;;;;;;;;;;;;-0.74;100.00;100723.75;5042542;28;1142;-70
2023/12/04 08:53:23;;;;;;;;;;;;;;;-0.74;100.00;100714.41;5040407;28;1548;-71
2023/12/04 08:55:48;;;;;;;;;;;;;;;-0.74;100.00;100718.69;5042610;28;1181;-71
2023/12/04 08:58:14;;;;;;;;;;;;;;;-0.71;100.00;100716.81;5041484;28;869;-71
2023/12/04 09:00:42;;;;;;;;;;;;;;;-0.70;100.00;100715.94;5039323;28;1969;-74
2023/12/04 09:03:07;;;;;;;;;;;;;;;-0.68;100.00;100708.25;5031132;28;1043;-70
2023/12/04 09:05:33;;;;;;;;;;;;;;;-0.66;100.00;100706.47;5037630;28;1082;-70
2023/12/04 09:07:58;;;;;;;;;;;;;;;-0.65;100.00;100703.88;5039632;28;1042;-72
2023/12/04 09:10:23;;;;;;;;;;;;;;;-0.65;100.00;100698.78;5034817;28;1154;-71
2023/12/04 09:12:48;;;;;;;;;;;;;;;-0.63;100.00;100693.59;5032566;28;1166;-71
2023/12/04 09:15:14;;;;;;;;;;;;;;;-0.62;100.00;100693.56;5034282;28;1375;-71
2023/12/04 09:17:39;;;;;;;;;;;;;;;-0.59;100.00;100695.16;5030922;28;1430;-71
2023/12/04 09:20:05;;;;;;;;;;;;;;;-0.59;100.00;100685.81;5037496;28;1890;-72
2023/12/04 09:22:30;;;;;;;;;;;;;;;-0.58;100.00;100690.00;5039613;28;1091;-72
2023/12/04 09:24:56;;;;;;;;;;;;;;;-0.57;100.00;100689.16;5036478;28;1343;-72
2023/12/04 09:27:22;;;;;;;;;;;;;;;-0.56;100.00;100683.16;5036422;28;1200;-70
2023/12/04 09:29:47;;;;;;;;;;;;;;;-0.55;100.00;100689.91;5037684;28;1063;-72
2023/12/04 09:32:12;;;;;;;;;;;;;;;-0.54;100.00;100686.47;5041539;28;1061;-71
2023/12/04 09:34:38;;;;;;;;;;;;;;;-0.52;100.00;100688.13;5031839;28;1095;-72
2023/12/04 09:37:03;;;;;;;;;;;;;;;-0.52;100.00;100683.84;5042896;28;1353;-72
2023/12/04 09:39:28;;;;;;;;;;;;;;;-0.49;100.00;100688.00;5041837;28;1922;-71
2023/12/04 09:41:54;;;;;;;;;;;;;;;-0.47;100.00;100696.41;5043310;28;1106;-71
2023/12/04 09:44:22;;;;;;;;;;;;;;;-0.46;100.00;100698.06;5044563;28;1003;-71
2023/12/04 09:46:47;;;;;;;;;;;;;;;-0.46;100.00;100692.97;5045770;28;1230;-72
2023/12/04 09:49:13;;;;;;;;;;;;;;;-0.44;100.00;100696.31;5043791;28;1053;-70
2023/12/04 09:51:38;;;;;;;;;;;;;;;-0.44;100.00;100696.31;5038804;28;1194;-71
2023/12/04 09:54:04;;;;;;;;;;;;;;;-0.42;100.00;100685.16;5036354;28;1147;-72
2023/12/04 09:56:29;;;;;;;;;;;;;;;-0.39;100.00;100684.22;5043528;28;1101;-72
2023/12/04 09:58:58;;;;;;;;;;;;;;;-0.39;100.00;100690.16;5038604;28;1902;-72
2023/12/04 10:01:23;;;;;;;;;;;;;;;-0.36;100.00;100689.19;5044114;28;1179;-72
2023/12/04 10:03:49;;;;;;;;;;;;;;;-0.35;100.00;100688.31;5035056;28;1208;-71
2023/12/04 10:06:17;;;;;;;;;;;;;;;-0.33;100.00;100684.81;5033515;28;1207;-70
2023/12/04 10:08:42;;;;;;;;;;;;;;;-0.33;100.00;100673.81;5036056;28;1223;-71
2023/12/04 10:11:07;;;;;;;;;;;;;;;-0.33;100.00;100674.63;5038143;28;1143;-70
2023/12/04 10:13:32;;;;;;;;;;;;;;;-0.32;100.00;100670.34;5030507;28;1216;-72
2023/12/04 10:15:58;;;;;;;;;;;;;;;-0.31;100.00;100666.91;5044390;28;1436;-72
2023/12/04 10:18:27;;;;;;;;;;;;;;;-0.29;100.00;100660.88;5042111;28;1324;-71
2023/12/04 10:20:53;;;;;;;;;;;;;;;-0.28;100.00;100664.25;5035767;28;1968;-71
2023/12/04 10:23:19;;;;;;;;;;;;;;;-0.28;100.00;100646.44;5025010;28;1367;-72
2023/12/04 10:25:45;;;;;;;;;;;;;;;-0.27;100.00;100648.91;5036650;28;1130;-72
2023/12/04 10:28:12;;;;;;;;;;;;;;;-0.25;100.00;100648.00;5034165;28;1272;-70
2023/12/04 10:30:37;;;;;;;;;;;;;;;-0.24;100.00;100650.50;5037364;28;1581;-71
2023/12/04 10:33:04;;;;;;;;;;;;;;;-0.23;100.00;100644.53;5034278;28;1170;-70
2023/12/04 10:35:33;;;;;;;;;;;;;;;-0.23;100.00;100639.44;5039737;28;1284;-71
2023/12/04 10:37:59;;;;;;;;;;;;;;;-0.23;100.00;100634.34;5036638;28;1311;-70
2023/12/04 10:40:28;;;;;;;;;;;;;;;-0.21;100.00;100627.44;5038430;28;1955;-71
2023/12/04 10:43:09;;;;;;;;;;;;;;;-0.21;100.00;100630.00;5038530;28;1534;-71
2023/12/04 10:45:34;;;;;;;;;;;;;;;-0.21;100.00;100619.78;5045581;28;1104;-72
2023/12/04 10:47:59;;;;;;;;;;;;;;;-0.19;100.00;100610.34;5045150;28;1100;-71
2023/12/04 10:50:25;;;;;;;;;;;;;;;-0.20;100.00;100608.72;5041929;28;1158;-71
2023/12/04 10:52:53;;;;;;;;;;;;;;;-0.17;100.00;100603.50;5035744;28;1191;-71
2023/12/04 10:55:19;;;;;;;;;;;;;;;-0.15;100.00;100601.69;5039320;28;1050;-72
2023/12/04 10:57:44;;;;;;;;;;;;;;;-0.14;100.00;100597.44;5036916;28;1152;-72
2023/12/04 11:00:10;;;;;;;;;;;;;;;-0.12;100.00;100593.91;5047197;28;1957;-71
2023/12/04 11:02:38;;;;;;;;;;;;;;;-0.11;100.00;100587.13;5041651;28;1416;-71
2023/12/04 11:05:16;;;;;;;;;;;;;;;-0.10;100.00;100579.41;5040533;28;1134;-72
2023/12/04 11:07:44;;;;;;;;;;;;;;;-0.10;100.00;100584.50;5042494;28;1122;-72
2023/12/04 11:10:10;;;;;;;;;;;;;;;-0.08;100.00;100579.34;5038821;28;1405;-71
2023/12/04 11:12:37;;;;;;;;;;;;;;;-0.11;100.00;100572.66;5043365;28;1234;-72
2023/12/04 11:15:04;;;;;;;;;;;;;;;-0.10;100.00;100564.13;5037763;28;1097;-71
2023/12/04 11:17:32;;;;;;;;;;;;;;;-0.10;100.00;100564.13;5039528;28;1270;-72
2023/12/04 11:20:03;;;;;;;;;;;;;;;-0.09;100.00;100570.88;5039358;28;1902;-71
2023/12/04 11:22:28;;;;;;;;;;;;;;;-0.07;100.00;100563.97;5045999;28;990;-70
2023/12/04 11:24:54;;;;;;;;;;;;;;;-0.07;100.00;100553.78;5038802;28;1164;-70
2023/12/04 11:27:20;;;;;;;;;;;;;;;-0.09;100.00;100545.38;5044949;28;1189;-72
2023/12/04 11:29:46;;;;;;;;;;;;;;;-0.06;100.00;100542.72;5041849;28;1340;-73
2023/12/04 11:32:15;;;;;;;;;;;;;;;-0.05;100.00;100541.81;5046741;28;1189;-72
2023/12/04 11:34:47;;;;;;;;;;;;;;;-0.03;100.00;100534.09;5045524;28;1056;-71
2023/12/04 11:37:13;;;;;;;;;;;;;;;-0.02;100.00;100525.53;5038362;28;1265;-71
2023/12/04 11:39:39;;;;;;;;;;;;;;;-0.01;100.00;100527.19;5036239;28;1894;-72
2023/12/04 11:42:06;;;;;;;;;;;;;;;-0.01;100.00;100522.91;5039074;28;1066;-71
2023/12/04 11:44:32;;;;;;;;;;;;;;;0.02;100.00;100526.25;5040211;28;1170;-71
2023/12/04 11:47:02;;;;;;;;;;;;;;;0.02;100.00;100527.06;5039111;28;1252;-73
2023/12/04 11:49:30;;;;;;;;;;;;;;;0.02;99.64;100526.25;5047396;28;1130;-72
2023/12/04 11:51:59;;;;;;;;;;;;;;;0.03;100.00;100520.25;5036637;28;1262;-72
2023/12/04 11:54:27;;;;;;;;;;;;;;;0.03;99.23;100527.91;5039739;28;1383;-72
2023/12/04 11:56:59;;;;;;;;;;;;;;;0.06;100.00;100527.75;5036012;28;1490;-71
2023/12/04 11:59:24;;;;;;;;;;;;;;;0.06;100.00;100532.84;5037952;28;1971;-73
2023/12/04 12:01:50;;;;;;;;;;;;;;;0.05;100.00;100526.09;5045844;28;1189;-72
2023/12/04 12:04:17;;;;;;;;;;;;;;;0.06;100.00;100520.09;5035736;28;1102;-71
2023/12/04 12:06:42;;;;;;;;;;;;;;;0.06;100.00;100513.31;5042722;28;1147;-72
2023/12/04 12:09:07;;;;;;;;;;;;;;;0.07;100.00;100509.03;5032412;28;1289;-72
2023/12/04 12:11:33;;;;;;;;;;;;;;;0.09;100.00;100502.13;5036040;28;1130;-72
2023/12/04 12:13:59;;;;;;;;;;;;;;;0.09;100.00;100486.84;5037940;28;1239;-73
2023/12/04 12:16:24;;;;;;;;;;;;;;;0.12;100.00;100491.81;5032280;28;1261;-71
2023/12/04 12:18:49;;;;;;;;;;;;;;;0.14;100.00;100495.13;5036692;28;907;-74
2023/12/04 12:21:14;;;;;;;;;;;;;;;0.16;100.00;100495.88;5044777;28;1894;-73
2023/12/04 12:23:40;;;;;;;;;;;;;;;0.17;100.00;100488.19;5039872;28;1181;-72
2023/12/04 12:26:05;;;;;;;;;;;;;;;0.21;100.00;100481.19;5039668;28;1137;-71
2023/12/04 12:28:31;;;;;;;;;;;;;;;0.21;100.00;100476.09;5047055;28;1037;-71